LAKE NATOMA (NIMBUS DAM) (NAT)

Elevation: 132' · AMERICAN R basin · Operator: US Bureau of Reclamation

Provisional data, subject to change.
Query executed Tuesday at 12:54:44   clock

Select a sensor type for a plot of data.
Note: Reservoir Flows are daily averages.

Earlier

Date RES ELE    STORAGE    RES CHG    OUTFLOW    INFLOW    SPILL    DIS PWR   
 FEET   AF   AF   CFS   CFS   CFS   CFS  
05/01/2016 122.69 7652 -407 3307 3106 836 2381
05/02/2016 124.09 8306 654 3228 3561 904 2234
05/03/2016 124.06 8291 -15 3276 3270 932 2254
05/04/2016 123.29 7927 -364 3660 3478 1454 2116
05/05/2016 123.56 8054 127 3764 3828 1769 1906
05/06/2016 123.86 8195 141 4256 4327 2563 1614
05/07/2016 123.52 8035 -160 4632 4551 2379 2179
05/08/2016 124.26 8391 356 4587 4767 2391 2122
05/09/2016 124.10 8311 -80 4617 4579 2395 2148
05/10/2016 124.19 8356 45 4592 4618 2351 2167
05/11/2016 124.29 8406 50 4571 4599 2372 2110
05/12/2016 123.32 7941 -465 4592 4361 2323 2173
05/13/2016 122.83 7715 -226 4593 4483 2287 2210
05/14/2016 122.79 7697 -18 4596 4590 2279 2221
05/15/2016 122.62 7620 -77 4504 4468 2303 2105
05/16/2016 123.52 8035 415 4461 4674 2282 2105
05/17/2016 123.67 8106 71 4553 4593 2279 2212
05/18/2016 124.03 8276 170 4890 4980 1455 3381
05/19/2016 123.48 8017 -259 5099 4972 0 5039
05/20/2016 123.25 7909 -108 5169 5116 0 5105
05/21/2016 123.36 7960 51 5183 5209 0 5114
05/22/2016 124.04 8281 321 5181 5345 0 5102
05/23/2016 123.48 8017 -264 5188 5057 0 5106
05/24/2016 124.27 8396 379 5182 5376 0 5100
05/25/2016 124.63 8576 180 5155 5249 796 4296
05/26/2016 124.59 8556 -20 4784 4777 0 4734
05/27/2016 124.36 8441 -115 4259 4205 0 4213
05/28/2016 124.43 8476 35 4188 4210 0 4138
05/29/2016 123.01 7796 -680 4183 3844 0 4122
05/30/2016 124.32 8421 625 4208 4527 0 4124
05/31/2016 -- -- -- -- -- -- --

Later | Latest

Warning! This data is preliminary and subject to revision.

Show NAT Map | Plot NAT Data | 1 Month NAT Data | Real-Time NAT Data | NAT Info